^^
Grace C. Lehan Memorial Weather Station Historical Data
Daily Summary for November 27, 2021 Units:  Metric    English   Both
Daily Weekly Monthly Yearly
  High: Low: Average:
Temperature: 4.9 °C 1.4 °C 2.6 °C
Dew Point: -1.1 °C -5.8 °C -2.8 °C
Humidity: 81% 46.7% 68%
Wind Speed: 22.9km/h 0.2km/h 9.2km/h
Wind Gust: 45.1km/h - -
Wind- - WNW
Pressure: 1007.3 hPa 999.9 hPa -
Precipitation: 0 mm    
 
 
Tabular Data for November 27, 2021
Time Temperature Dew Point Pressure Wind Wind Speed Wind Gust Humidity Rainfall Rate (Hourly) solar
00:04 1.8 °C -1.1 °C 999.9 hPa West 1.3 km/h 17.7 km/h 81% 0 mm 0 W/m2
00:09 1.8 °C -1.1 °C 1000.2 hPa West 3.1 km/h 14.5 km/h 81% 0 mm 0 W/m2
00:14 1.8 °C -1.1 °C 1000.2 hPa West 0.2 km/h 14.5 km/h 81% 0 mm 0 W/m2
00:19 1.8 °C -1.1 °C 1000.2 hPa WNW 3.4 km/h 14.5 km/h 81% 0 mm 0 W/m2
00:24 1.8 °C -1.2 °C 1000.2 hPa WSW 3.5 km/h 17.7 km/h 80.3% 0 mm 0 W/m2
00:29 1.8 °C -1.2 °C 1000.2 hPa West 1.1 km/h 17.7 km/h 80% 0 mm 0 W/m2
00:34 1.8 °C -1.2 °C 1000.2 hPa WNW 4.8 km/h 17.7 km/h 80% 0 mm 0 W/m2
00:39 1.9 °C -1.2 °C 1000.2 hPa WNW 1.6 km/h 16.1 km/h 80% 0 mm 0 W/m2
00:44 1.9 °C -1.2 °C 1000.2 hPa West 4 km/h 24.1 km/h 80% 0 mm 0 W/m2
00:49 2 °C -1.2 °C 1000.2 hPa West 6.8 km/h 24.1 km/h 79% 0 mm 0 W/m2
00:54 2.1 °C -1.2 °C 1000.2 hPa WNW 3.4 km/h 24.1 km/h 79% 0 mm 0 W/m2
00:59 2.1 °C -1.1 °C 1000.2 hPa West 5 km/h 24.1 km/h 79% 0 mm 0 W/m2
01:04 2.2 °C -1.2 °C 1000.2 hPa West 2.1 km/h 24.1 km/h 78.2% 0 mm 0 W/m2
01:09 2.2 °C -1.2 °C 1000.2 hPa WNW 8.5 km/h 22.5 km/h 78% 0 mm 0 W/m2
01:14 2.3 °C -1.2 °C 1000.6 hPa West 6.8 km/h 22.5 km/h 77.7% 0 mm 0 W/m2
01:19 2.3 °C -1.3 °C 1000.6 hPa West 6.9 km/h 22.5 km/h 77% 0 mm 0 W/m2
01:24 2.4 °C -1.2 °C 1000.9 hPa West 9.8 km/h 24.1 km/h 77% 0 mm 0 W/m2
01:29 2.4 °C -1.2 °C 1000.9 hPa West 5.3 km/h 24.1 km/h 76.7% 0 mm 0 W/m2
01:34 2.4 °C -1.3 °C 1000.9 hPa WSW 4.3 km/h 24.1 km/h 76% 0 mm 0 W/m2
01:39 2.5 °C -1.3 °C 1000.9 hPa West 5.5 km/h 19.3 km/h 76% 0 mm 0 W/m2
01:44 2.5 °C -1.4 °C 1001.2 hPa WNW 7.7 km/h 19.3 km/h 75.4% 0 mm 0 W/m2
01:49 2.6 °C -1.4 °C 1001.2 hPa WNW 8 km/h 19.3 km/h 75% 0 mm 0 W/m2
01:54 2.6 °C -1.4 °C 1001.2 hPa WNW 8.9 km/h 24.1 km/h 75% 0 mm 0 W/m2
01:59 2.6 °C -1.5 °C 1001.2 hPa WNW 12.9 km/h 24.1 km/h 74.6% 0 mm 0 W/m2
02:04 2.6 °C -1.6 °C 1001.2 hPa WNW 7.2 km/h 24.1 km/h 74% 0 mm 0 W/m2
02:09 2.6 °C -1.6 °C 1001.2 hPa WNW 9.3 km/h 27.4 km/h 74% 0 mm 0 W/m2
02:14 2.6 °C -1.8 °C 1001.2 hPa WNW 12.9 km/h 30.6 km/h 73% 0 mm 0 W/m2
02:19 2.6 °C -1.8 °C 1001.6 hPa WNW 10.8 km/h 30.6 km/h 73% 0 mm 0 W/m2
02:24 2.6 °C -1.8 °C 1001.6 hPa WNW 12.7 km/h 30.6 km/h 72.8% 0 mm 0 W/m2
02:29 2.6 °C -1.8 °C 1001.6 hPa WNW 10.8 km/h 30.6 km/h 72.8% 0 mm 0 W/m2
02:34 2.5 °C -1.9 °C 1001.6 hPa WNW 7.1 km/h 30.6 km/h 72.6% 0 mm 0 W/m2
02:39 2.5 °C -1.9 °C 1001.9 hPa West 8.5 km/h 24.1 km/h 72.7% 0 mm 0 W/m2
02:44 2.4 °C -2.1 °C 1001.9 hPa WNW 15.4 km/h 35.4 km/h 72.2% 0 mm 0 W/m2
02:49 2.4 °C -2.1 °C 1001.9 hPa WNW 15.3 km/h 37 km/h 72% 0 mm 0 W/m2
02:54 2.4 °C -2.1 °C 1001.9 hPa NW 12.1 km/h 37 km/h 72% 0 mm 0 W/m2
02:59 2.4 °C -2.2 °C 1001.9 hPa WNW 19.6 km/h 37 km/h 71.6% 0 mm 0 W/m2
03:04 2.4 °C -2.3 °C 1002.3 hPa WNW 12.2 km/h 37 km/h 71.3% 0 mm 0 W/m2
03:09 2.4 °C -2.3 °C 1002.3 hPa WNW 6.4 km/h 29 km/h 71.3% 0 mm 0 W/m2
03:14 2.4 °C -2.2 °C 1002.3 hPa WNW 6.1 km/h 29 km/h 71.5% 0 mm 0 W/m2
03:19 2.3 °C -2.3 °C 1002.6 hPa WNW 7.9 km/h 29 km/h 71.5% 0 mm 0 W/m2
03:24 2.3 °C -2.3 °C 1002.6 hPa WNW 9.3 km/h 29 km/h 71.5% 0 mm 0 W/m2
03:30 2.3 °C -2.4 °C 1002.6 hPa WNW 9.7 km/h 29 km/h 71% 0 mm 0 W/m2
04:04 2.3 °C -2.4 °C 1002.9 hPa West 17.7 km/h 35.4 km/h 71% 0 mm 0 W/m2
04:09 2.3 °C -2.4 °C 1002.9 hPa WNW 17.7 km/h 35.4 km/h 71% 0 mm 0 W/m2
04:14 2.3 °C -2.4 °C 1003.3 hPa NW 13.5 km/h 35.4 km/h 71% 0 mm 0 W/m2
04:19 2.3 °C -2.4 °C 1003.3 hPa NW 13.8 km/h 35.4 km/h 70.8% 0 mm 0 W/m2
04:24 2.3 °C -2.5 °C 1003.3 hPa WNW 9.8 km/h 35.4 km/h 70.6% 0 mm 0 W/m2
04:29 2.3 °C -2.4 °C 1003.3 hPa NW 3.4 km/h 35.4 km/h 71% 0 mm 0 W/m2
04:34 2.2 °C -2.5 °C 1003.3 hPa WNW 2.7 km/h 35.4 km/h 71% 0 mm 0 W/m2
04:39 2.2 °C -2.5 °C 1003.6 hPa WNW 8.7 km/h 22.5 km/h 71% 0 mm 0 W/m2
04:44 2.2 °C -2.6 °C 1003.6 hPa WNW 8.5 km/h 24.1 km/h 71% 0 mm 0 W/m2
04:49 2.2 °C -2.6 °C 1003.6 hPa WNW 10.1 km/h 25.7 km/h 71% 0 mm 0 W/m2
04:54 2.2 °C -2.6 °C 1003.6 hPa WNW 12.9 km/h 32.2 km/h 71% 0 mm 0 W/m2
04:59 2.2 °C -2.6 °C 1003.6 hPa NW 16.4 km/h 35.4 km/h 71% 0 mm 0 W/m2
05:04 2.2 °C -2.7 °C 1003.9 hPa NW 11.9 km/h 35.4 km/h 70.1% 0 mm 0 W/m2
05:09 2.2 °C -2.7 °C 1003.9 hPa WNW 14 km/h 32.2 km/h 70% 0 mm 0 W/m2
05:14 2.2 °C -2.6 °C 1003.9 hPa WNW 8 km/h 32.2 km/h 70.7% 0 mm 0 W/m2
05:19 2.2 °C -2.6 °C 1003.9 hPa WNW 11.9 km/h 32.2 km/h 70.8% 0 mm 0 W/m2
05:24 2.2 °C -2.6 °C 1003.9 hPa WNW 3.7 km/h 32.2 km/h 71% 0 mm 0 W/m2
05:29 2.1 °C -2.6 °C 1003.9 hPa WNW 5.8 km/h 32.2 km/h 71% 0 mm 0 W/m2
05:34 2.1 °C -2.6 °C 1003.9 hPa WNW 4.5 km/h 32.2 km/h 71% 0 mm 0 W/m2
05:39 2.1 °C -2.6 °C 1004.3 hPa West 9.3 km/h 25.7 km/h 71% 0 mm 0 W/m2
05:44 2.1 °C -2.7 °C 1004.3 hPa WNW 11.6 km/h 25.7 km/h 71% 0 mm 0 W/m2
05:49 2.1 °C -2.7 °C 1004.3 hPa West 8.5 km/h 25.7 km/h 71% 0 mm 0 W/m2
05:54 2.1 °C -2.7 °C 1004.3 hPa West 6.6 km/h 25.7 km/h 71% 0 mm 0 W/m2
05:59 2.1 °C -2.7 °C 1004.6 hPa WNW 5.6 km/h 25.7 km/h 71% 0 mm 0 W/m2
06:04 2.1 °C -2.7 °C 1004.6 hPa WNW 2.9 km/h 25.7 km/h 71% 0 mm 0 W/m2
06:09 2 °C -2.7 °C 1004.6 hPa NW 12.1 km/h 25.7 km/h 71% 0 mm 0 W/m2
06:14 2 °C -2.7 °C 1004.6 hPa WNW 7.6 km/h 25.7 km/h 71% 0 mm 0 W/m2
06:19 1.9 °C -2.8 °C 1004.6 hPa WNW 9 km/h 25.7 km/h 70.9% 0 mm 0 W/m2
06:24 1.9 °C -2.9 °C 1004.6 hPa WNW 4.8 km/h 25.7 km/h 70% 0 mm 0 W/m2
06:29 1.9 °C -2.9 °C 1005 hPa WNW 6.3 km/h 25.7 km/h 70.2% 0 mm 0 W/m2
06:34 1.8 °C -3.1 °C 1005 hPa NW 8.4 km/h 25.7 km/h 70% 0 mm 0 W/m2
06:39 1.8 °C -3.1 °C 1005 hPa WNW 3.9 km/h 20.9 km/h 70% 0 mm 0 W/m2
06:44 1.8 °C -3.1 °C 1005.3 hPa WNW 6.1 km/h 20.9 km/h 70% 0 mm 0 W/m2
06:49 1.7 °C -3.2 °C 1005.3 hPa WNW 0.3 km/h 20.9 km/h 70% 0 mm 0 W/m2
06:54 1.7 °C -3.1 °C 1005.3 hPa WNW 1.3 km/h 20.9 km/h 70.4% 0 mm 0 W/m2
06:59 1.6 °C -3.2 °C 1005.3 hPa WNW 3.1 km/h 20.9 km/h 70.1% 0 mm 5 W/m2
07:04 1.6 °C -3.3 °C 1005.3 hPa WNW 0.2 km/h 20.9 km/h 70% 0 mm 9 W/m2
07:09 1.6 °C -3.3 °C 1005.3 hPa WNW 1.3 km/h 8 km/h 70% 0 mm 12 W/m2
07:14 1.5 °C -3.4 °C 1005.3 hPa West 1.9 km/h 11.3 km/h 70% 0 mm 14 W/m2
07:19 1.4 °C -3.4 °C 1005.3 hPa West 3.7 km/h 16.1 km/h 70% 0 mm 19 W/m2
07:24 1.4 °C -3.4 °C 1005.6 hPa WNW 4.8 km/h 17.7 km/h 70% 0 mm 26 W/m2
07:29 1.4 °C -3.6 °C 1005.6 hPa WNW 5.3 km/h 17.7 km/h 69.3% 0 mm 30 W/m2
07:34 1.5 °C -3.6 °C 1005.6 hPa WNW 6.1 km/h 22.5 km/h 68.8% 0 mm 46 W/m2
07:39 1.7 °C -3.7 °C 1005.6 hPa WNW 11.9 km/h 29 km/h 67.6% 0 mm 56 W/m2
07:44 1.8 °C -3.6 °C 1006 hPa WNW 7.1 km/h 29 km/h 67% 0 mm 100 W/m2
07:49 2.1 °C -3.4 °C 1006 hPa WNW 4.8 km/h 29 km/h 66.7% 0 mm 90 W/m2
07:54 2.4 °C -3.4 °C 1006 hPa WNW 3.5 km/h 29 km/h 65.3% 0 mm 69 W/m2
07:59 2.6 °C -3.3 °C 1006.3 hPa WNW 1.1 km/h 29 km/h 65% 0 mm 98 W/m2
08:04 2.8 °C -3.3 °C 1006.3 hPa WNW 5.5 km/h 6.4 km/h 64% 0 mm 155 W/m2
08:09 2.8 °C -3.4 °C 1006.3 hPa WNW 14.3 km/h 30.6 km/h 63.3% 0 mm 202 W/m2
08:14 2.9 °C -3.5 °C 1006.3 hPa WNW 12.6 km/h 30.6 km/h 62.8% 0 mm 113 W/m2
08:19 2.9 °C -3.4 °C 1006.3 hPa NW 8.4 km/h 30.6 km/h 63% 0 mm 227 W/m2
08:24 3.1 °C -3.2 °C 1006.7 hPa WNW 10.6 km/h 30.6 km/h 62.9% 0 mm 234 W/m2
08:29 3.4 °C -3.3 °C 1006.3 hPa WNW 17.1 km/h 33.8 km/h 61.4% 0 mm 241 W/m2
08:34 3.5 °C -3.2 °C 1006.7 hPa WNW 7.2 km/h 33.8 km/h 61.2% 0 mm 243 W/m2
08:39 3.7 °C -3.2 °C 1006.3 hPa WNW 14.5 km/h 30.6 km/h 60.7% 0 mm 248 W/m2
08:44 3.7 °C -3.3 °C 1006.7 hPa WNW 12.2 km/h 30.6 km/h 60% 0 mm 246 W/m2
08:49 3.7 °C -3.3 °C 1006.7 hPa WNW 11.9 km/h 30.6 km/h 60.4% 0 mm 214 W/m2
08:54 3.6 °C -3.4 °C 1006.7 hPa WNW 13.2 km/h 30.6 km/h 60.2% 0 mm 213 W/m2
08:59 3.4 °C -3.6 °C 1006.7 hPa WNW 18.7 km/h 33.8 km/h 60.2% 0 mm 135 W/m2
09:04 3.2 °C -3.9 °C 1007 hPa WNW 14.6 km/h 33.8 km/h 60% 0 mm 179 W/m2
09:09 3 °C -4 °C 1007 hPa WNW 13.8 km/h 33.8 km/h 60% 0 mm 160 W/m2
09:14 3 °C -4.1 °C 1007 hPa WNW 16.3 km/h 33.8 km/h 60% 0 mm 149 W/m2
09:19 2.9 °C -4.3 °C 1007 hPa NW 15.4 km/h 33.8 km/h 59% 0 mm 197 W/m2
09:24 3 °C -4.2 °C 1007 hPa NW 14.6 km/h 33.8 km/h 59% 0 mm 178 W/m2
09:29 3.1 °C -4.3 °C 1007.3 hPa NW 11.1 km/h 33.8 km/h 58.5% 0 mm 146 W/m2
09:34 3.1 °C -4.3 °C 1007.3 hPa WNW 6.6 km/h 33.8 km/h 58.4% 0 mm 111 W/m2
09:39 3.2 °C -4.2 °C 1007.3 hPa NW 12.2 km/h 29 km/h 58.4% 0 mm 185 W/m2
09:44 3.2 °C -3.7 °C 1007.3 hPa WNW 15.6 km/h 37 km/h 60.4% 0 mm 190 W/m2
09:49 3.3 °C -4.4 °C 1007.3 hPa WNW 14.5 km/h 45.1 km/h 57% 0 mm 88 W/m2
09:54 3.3 °C -4.4 °C 1007.3 hPa NW 11.6 km/h 45.1 km/h 57% 0 mm 265 W/m2
09:59 3.4 °C -4.4 °C 1007.3 hPa WNW 11.3 km/h 45.1 km/h 56.6% 0 mm 316 W/m2
10:04 3.7 °C -4.1 °C 1007.3 hPa WNW 7.7 km/h 45.1 km/h 56.7% 0 mm 309 W/m2
10:09 4 °C -4.1 °C 1007.3 hPa WNW 10.9 km/h 25.7 km/h 55.3% 0 mm 378 W/m2
10:14 4.3 °C -4.3 °C 1007.3 hPa WNW 11.7 km/h 30.6 km/h 53.5% 0 mm 420 W/m2
10:19 4.7 °C -4.4 °C 1007.3 hPa NW 11.4 km/h 30.6 km/h 51.7% 0 mm 459 W/m2
10:24 4.9 °C -4.7 °C 1007.3 hPa WNW 18.3 km/h 45.1 km/h 49.8% 0 mm 464 W/m2
10:29 4.8 °C -5.2 °C 1007.3 hPa WNW 22.9 km/h 45.1 km/h 48% 0 mm 471 W/m2
10:34 4.7 °C -5.3 °C 1007.3 hPa NW 15.4 km/h 45.1 km/h 48.3% 0 mm 471 W/m2
10:39 4.7 °C -5.6 °C 1007.3 hPa WNW 12.2 km/h 30.6 km/h 47.5% 0 mm 290 W/m2
10:44 4.7 °C -5.4 °C 1007.3 hPa WNW 14.2 km/h 30.6 km/h 48% 0 mm 322 W/m2
10:49 4.7 °C -5.4 °C 1007 hPa WNW 14 km/h 30.6 km/h 47.7% 0 mm 322 W/m2
10:54 4.7 °C -5.6 °C 1007 hPa NW 18.8 km/h 35.4 km/h 47% 0 mm 408 W/m2
10:59 4.6 °C -5.8 °C 1007.3 hPa NW 14.5 km/h 35.4 km/h 46.7% 0 mm 443 W/m2
11:04 4.6 °C -5.8 °C 1007.3 hPa WNW 13.7 km/h 37 km/h 46.9% 0 mm 443 W/m2
11:08 4.6 °C -5.4 °C 1007 hPa NW 10.9 km/h 37 km/h 48% 0 mm 98 W/m2
Hartford County Weather
Compliments of Weather Underground - 4 mb